sensor_id;sensor_type;location;lat;lon;timestamp;temperature;humidity
76613;DHT22;65507;48.454;-2.058;2023-07-31T00:00:30;18.30;72.50
76613;DHT22;65507;48.454;-2.058;2023-07-31T00:02:56;18.30;72.50
76613;DHT22;65507;48.454;-2.058;2023-07-31T00:05:21;18.30;72.50
76613;DHT22;65507;48.454;-2.058;2023-07-31T00:07:47;18.30;72.40
76613;DHT22;65507;48.454;-2.058;2023-07-31T00:10:13;18.40;72.50
76613;DHT22;65507;48.454;-2.058;2023-07-31T00:12:39;18.40;72.70
76613;DHT22;65507;48.454;-2.058;2023-07-31T00:15:06;18.40;72.60
76613;DHT22;65507;48.454;-2.058;2023-07-31T00:17:31;18.40;72.30
76613;DHT22;65507;48.454;-2.058;2023-07-31T00:19:57;18.40;72.30
76613;DHT22;65507;48.454;-2.058;2023-07-31T00:22:22;18.50;72.30
76613;DHT22;65507;48.454;-2.058;2023-07-31T00:24:48;18.50;72.20
76613;DHT22;65507;48.454;-2.058;2023-07-31T00:27:14;18.50;72.20
76613;DHT22;65507;48.454;-2.058;2023-07-31T00:29:39;18.50;73.30
76613;DHT22;65507;48.454;-2.058;2023-07-31T00:32:05;18.50;72.40
76613;DHT22;65507;48.454;-2.058;2023-07-31T00:34:30;18.50;72.40
76613;DHT22;65507;48.454;-2.058;2023-07-31T00:36:56;18.50;72.40
76613;DHT22;65507;48.454;-2.058;2023-07-31T00:39:21;18.50;72.40
76613;DHT22;65507;48.454;-2.058;2023-07-31T00:41:47;18.50;72.50
76613;DHT22;65507;48.454;-2.058;2023-07-31T00:44:13;18.50;72.40
76613;DHT22;65507;48.454;-2.058;2023-07-31T00:46:38;18.50;72.50
76613;DHT22;65507;48.454;-2.058;2023-07-31T00:49:04;18.40;72.90
76613;DHT22;65507;48.454;-2.058;2023-07-31T00:51:30;18.50;72.50
76613;DHT22;65507;48.454;-2.058;2023-07-31T00:53:55;18.50;72.60
76613;DHT22;65507;48.454;-2.058;2023-07-31T00:56:21;18.50;72.60
76613;DHT22;65507;48.454;-2.058;2023-07-31T00:58:47;18.50;72.50
76613;DHT22;65507;48.454;-2.058;2023-07-31T01:01:13;18.50;72.80
76613;DHT22;65507;48.454;-2.058;2023-07-31T01:03:38;18.50;72.70
76613;DHT22;65507;48.454;-2.058;2023-07-31T01:11:09;18.00;72.30
76613;DHT22;65507;48.454;-2.058;2023-07-31T01:13:38;18.50;72.50
76613;DHT22;65507;48.454;-2.058;2023-07-31T01:16:04;18.50;72.60
76613;DHT22;65507;48.454;-2.058;2023-07-31T01:18:29;18.50;72.50
76613;DHT22;65507;48.454;-2.058;2023-07-31T01:20:57;18.50;72.60
76613;DHT22;65507;48.454;-2.058;2023-07-31T01:31:21;18.50;72.70
76613;DHT22;65507;48.454;-2.058;2023-07-31T01:33:48;18.40;72.70
76613;DHT22;65507;48.454;-2.058;2023-07-31T01:36:14;18.50;72.70
76613;DHT22;65507;48.454;-2.058;2023-07-31T01:38:40;18.50;72.70
76613;DHT22;65507;48.454;-2.058;2023-07-31T01:41:06;18.50;72.70
76613;DHT22;65507;48.454;-2.058;2023-07-31T01:43:31;18.50;72.70
76613;DHT22;65507;48.454;-2.058;2023-07-31T01:45:57;18.50;72.70
76613;DHT22;65507;48.454;-2.058;2023-07-31T01:48:22;18.50;72.70
76613;DHT22;65507;48.454;-2.058;2023-07-31T01:50:48;18.50;72.70
76613;DHT22;65507;48.454;-2.058;2023-07-31T01:53:13;18.50;73.80
76613;DHT22;65507;48.454;-2.058;2023-07-31T01:55:39;18.50;72.80
76613;DHT22;65507;48.454;-2.058;2023-07-31T01:58:04;18.50;72.80
76613;DHT22;65507;48.454;-2.058;2023-07-31T02:00:30;18.50;72.90
76613;DHT22;65507;48.454;-2.058;2023-07-31T02:02:55;18.50;72.90
76613;DHT22;65507;48.454;-2.058;2023-07-31T02:05:21;18.50;72.90
76613;DHT22;65507;48.454;-2.058;2023-07-31T02:07:46;18.40;72.90
76613;DHT22;65507;48.454;-2.058;2023-07-31T02:10:12;18.50;72.80
76613;DHT22;65507;48.454;-2.058;2023-07-31T02:12:38;18.40;72.80
76613;DHT22;65507;48.454;-2.058;2023-07-31T02:15:04;18.40;72.90
76613;DHT22;65507;48.454;-2.058;2023-07-31T02:17:29;18.40;72.90
76613;DHT22;65507;48.454;-2.058;2023-07-31T02:19:55;18.40;72.90
76613;DHT22;65507;48.454;-2.058;2023-07-31T02:22:20;18.40;72.80
76613;DHT22;65507;48.454;-2.058;2023-07-31T02:24:46;18.40;72.80
76613;DHT22;65507;48.454;-2.058;2023-07-31T02:27:11;18.40;72.80
76613;DHT22;65507;48.454;-2.058;2023-07-31T02:29:37;18.50;72.80
76613;DHT22;65507;48.454;-2.058;2023-07-31T02:32:02;18.50;72.80
76613;DHT22;65507;48.454;-2.058;2023-07-31T02:34:28;18.40;72.80
76613;DHT22;65507;48.454;-2.058;2023-07-31T02:36:54;18.50;72.90
76613;DHT22;65507;48.454;-2.058;2023-07-31T02:39:19;18.40;72.90
76613;DHT22;65507;48.454;-2.058;2023-07-31T02:41:45;18.50;73.10
76613;DHT22;65507;48.454;-2.058;2023-07-31T02:44:10;18.40;73.10
76613;DHT22;65507;48.454;-2.058;2023-07-31T02:46:38;18.40;73.00
76613;DHT22;65507;48.454;-2.058;2023-07-31T02:49:04;18.40;73.00
76613;DHT22;65507;48.454;-2.058;2023-07-31T02:51:30;18.40;73.00
76613;DHT22;65507;48.454;-2.058;2023-07-31T02:53:55;18.40;73.20
76613;DHT22;65507;48.454;-2.058;2023-07-31T02:56:21;18.30;73.30
76613;DHT22;65507;48.454;-2.058;2023-07-31T02:58:46;18.30;73.30
76613;DHT22;65507;48.454;-2.058;2023-07-31T03:01:12;18.30;73.30
76613;DHT22;65507;48.454;-2.058;2023-07-31T03:03:37;18.30;73.50
76613;DHT22;65507;48.454;-2.058;2023-07-31T03:06:03;18.30;73.40
76613;DHT22;65507;48.454;-2.058;2023-07-31T03:08:28;18.20;73.40
76613;DHT22;65507;48.454;-2.058;2023-07-31T03:10:54;18.20;73.40
76613;DHT22;65507;48.454;-2.058;2023-07-31T03:13:19;18.20;73.50
76613;DHT22;65507;48.454;-2.058;2023-07-31T03:15:45;18.20;73.40
76613;DHT22;65507;48.454;-2.058;2023-07-31T03:18:10;18.20;73.40
76613;DHT22;65507;48.454;-2.058;2023-07-31T03:20:36;18.20;73.40
76613;DHT22;65507;48.454;-2.058;2023-07-31T03:23:01;18.20;74.40
76613;DHT22;65507;48.454;-2.058;2023-07-31T03:25:27;18.10;73.50
76613;DHT22;65507;48.454;-2.058;2023-07-31T03:27:52;18.10;73.50
76613;DHT22;65507;48.454;-2.058;2023-07-31T03:30:18;18.10;73.50
76613;DHT22;65507;48.454;-2.058;2023-07-31T03:32:44;18.20;73.40
76613;DHT22;65507;48.454;-2.058;2023-07-31T03:35:09;18.20;73.40
76613;DHT22;65507;48.454;-2.058;2023-07-31T03:37:35;18.20;73.40
76613;DHT22;65507;48.454;-2.058;2023-07-31T03:40:00;18.20;73.50
76613;DHT22;65507;48.454;-2.058;2023-07-31T03:42:26;18.30;73.20
76613;DHT22;65507;48.454;-2.058;2023-07-31T03:44:51;18.30;73.20
76613;DHT22;65507;48.454;-2.058;2023-07-31T03:47:17;18.30;73.10
76613;DHT22;65507;48.454;-2.058;2023-07-31T03:49:42;18.40;73.10
76613;DHT22;65507;48.454;-2.058;2023-07-31T03:52:08;18.40;73.00
76613;DHT22;65507;48.454;-2.058;2023-07-31T03:54:33;18.40;73.00
76613;DHT22;65507;48.454;-2.058;2023-07-31T03:56:59;18.50;73.00
76613;DHT22;65507;48.454;-2.058;2023-07-31T03:59:24;18.50;73.00
76613;DHT22;65507;48.454;-2.058;2023-07-31T04:01:50;18.50;73.10
76613;DHT22;65507;48.454;-2.058;2023-07-31T04:04:15;18.50;72.90
76613;DHT22;65507;48.454;-2.058;2023-07-31T04:06:41;18.60;72.90
76613;DHT22;65507;48.454;-2.058;2023-07-31T04:09:06;18.60;73.00
76613;DHT22;65507;48.454;-2.058;2023-07-31T04:11:32;18.60;72.80
76613;DHT22;65507;48.454;-2.058;2023-07-31T04:13:58;18.60;72.90
76613;DHT22;65507;48.454;-2.058;2023-07-31T04:16:23;18.60;72.80
76613;DHT22;65507;48.454;-2.058;2023-07-31T04:18:49;18.60;73.00
76613;DHT22;65507;48.454;-2.058;2023-07-31T04:21:14;18.70;73.20
76613;DHT22;65507;48.454;-2.058;2023-07-31T04:23:40;18.70;73.00
76613;DHT22;65507;48.454;-2.058;2023-07-31T04:26:05;18.70;73.20
76613;DHT22;65507;48.454;-2.058;2023-07-31T04:28:31;18.70;73.00
76613;DHT22;65507;48.454;-2.058;2023-07-31T04:30:57;18.70;73.00
76613;DHT22;65507;48.454;-2.058;2023-07-31T04:33:22;18.70;73.00
76613;DHT22;65507;48.454;-2.058;2023-07-31T04:35:51;18.70;72.90
76613;DHT22;65507;48.454;-2.058;2023-07-31T04:38:18;18.70;72.80
76613;DHT22;65507;48.454;-2.058;2023-07-31T04:40:43;18.80;72.90
76613;DHT22;65507;48.454;-2.058;2023-07-31T04:43:09;18.80;72.90
76613;DHT22;65507;48.454;-2.058;2023-07-31T04:45:34;18.80;73.00
76613;DHT22;65507;48.454;-2.058;2023-07-31T04:48:00;18.80;73.00
76613;DHT22;65507;48.454;-2.058;2023-07-31T04:50:25;18.80;73.10
76613;DHT22;65507;48.454;-2.058;2023-07-31T04:52:51;18.80;73.10
76613;DHT22;65507;48.454;-2.058;2023-07-31T04:55:17;18.80;73.10
76613;DHT22;65507;48.454;-2.058;2023-07-31T04:57:43;18.80;73.10
76613;DHT22;65507;48.454;-2.058;2023-07-31T05:00:08;18.80;73.20
76613;DHT22;65507;48.454;-2.058;2023-07-31T05:02:34;18.80;73.10
76613;DHT22;65507;48.454;-2.058;2023-07-31T05:04:59;18.80;73.00
76613;DHT22;65507;48.454;-2.058;2023-07-31T05:07:25;18.80;73.10
76613;DHT22;65507;48.454;-2.058;2023-07-31T05:09:50;18.80;73.10
76613;DHT22;65507;48.454;-2.058;2023-07-31T05:12:16;18.90;73.20
76613;DHT22;65507;48.454;-2.058;2023-07-31T05:14:42;18.80;73.10
76613;DHT22;65507;48.454;-2.058;2023-07-31T05:17:07;18.90;73.20
76613;DHT22;65507;48.454;-2.058;2023-07-31T05:19:33;18.90;73.20
76613;DHT22;65507;48.454;-2.058;2023-07-31T05:21:58;18.90;73.30
76613;DHT22;65507;48.454;-2.058;2023-07-31T05:24:24;18.90;73.20
76613;DHT22;65507;48.454;-2.058;2023-07-31T05:26:49;18.90;73.30
76613;DHT22;65507;48.454;-2.058;2023-07-31T05:29:15;18.90;73.30
76613;DHT22;65507;48.454;-2.058;2023-07-31T05:31:41;18.90;73.20
76613;DHT22;65507;48.454;-2.058;2023-07-31T05:34:07;18.90;73.10
76613;DHT22;65507;48.454;-2.058;2023-07-31T05:36:32;19.00;73.20
76613;DHT22;65507;48.454;-2.058;2023-07-31T05:38:58;19.00;73.20
76613;DHT22;65507;48.454;-2.058;2023-07-31T05:41:23;19.00;73.30
76613;DHT22;65507;48.454;-2.058;2023-07-31T05:43:49;19.00;73.10
76613;DHT22;65507;48.454;-2.058;2023-07-31T05:46:15;19.10;73.10
76613;DHT22;65507;48.454;-2.058;2023-07-31T05:48:40;19.00;73.10
76613;DHT22;65507;48.454;-2.058;2023-07-31T05:51:06;19.10;73.40
76613;DHT22;65507;48.454;-2.058;2023-07-31T05:53:32;19.10;73.10
76613;DHT22;65507;48.454;-2.058;2023-07-31T05:55:58;19.10;73.10
76613;DHT22;65507;48.454;-2.058;2023-07-31T05:58:23;19.10;73.20
76613;DHT22;65507;48.454;-2.058;2023-07-31T06:00:49;19.10;73.20
76613;DHT22;65507;48.454;-2.058;2023-07-31T06:03:14;19.10;73.20
76613;DHT22;65507;48.454;-2.058;2023-07-31T06:05:40;19.20;73.20
76613;DHT22;65507;48.454;-2.058;2023-07-31T06:08:05;19.20;73.30
76613;DHT22;65507;48.454;-2.058;2023-07-31T06:10:31;19.20;73.30
76613;DHT22;65507;48.454;-2.058;2023-07-31T06:12:56;19.20;73.30
76613;DHT22;65507;48.454;-2.058;2023-07-31T06:15:22;19.20;73.30
76613;DHT22;65507;48.454;-2.058;2023-07-31T06:17:48;19.20;73.40
76613;DHT22;65507;48.454;-2.058;2023-07-31T06:20:13;19.20;73.30
76613;DHT22;65507;48.454;-2.058;2023-07-31T06:22:39;19.30;73.30
76613;DHT22;65507;48.454;-2.058;2023-07-31T06:25:04;19.30;73.40
76613;DHT22;65507;48.454;-2.058;2023-07-31T06:27:30;19.30;73.30
76613;DHT22;65507;48.454;-2.058;2023-07-31T06:29:56;19.30;73.30
76613;DHT22;65507;48.454;-2.058;2023-07-31T06:32:22;19.30;73.20
76613;DHT22;65507;48.454;-2.058;2023-07-31T06:34:48;19.30;73.40
76613;DHT22;65507;48.454;-2.058;2023-07-31T06:37:13;19.30;73.50
76613;DHT22;65507;48.454;-2.058;2023-07-31T06:39:39;19.40;73.70
76613;DHT22;65507;48.454;-2.058;2023-07-31T06:42:07;19.40;73.40
76613;DHT22;65507;48.454;-2.058;2023-07-31T06:44:32;19.40;73.20
76613;DHT22;65507;48.454;-2.058;2023-07-31T06:46:58;19.40;74.50
76613;DHT22;65507;48.454;-2.058;2023-07-31T06:49:23;19.50;73.30
76613;DHT22;65507;48.454;-2.058;2023-07-31T06:51:49;19.50;73.40
76613;DHT22;65507;48.454;-2.058;2023-07-31T06:54:14;19.50;73.30
76613;DHT22;65507;48.454;-2.058;2023-07-31T06:56:40;19.50;73.80
76613;DHT22;65507;48.454;-2.058;2023-07-31T06:59:05;19.50;73.20
76613;DHT22;65507;48.454;-2.058;2023-07-31T07:01:31;19.60;73.20
76613;DHT22;65507;48.454;-2.058;2023-07-31T07:03:56;19.60;73.50
76613;DHT22;65507;48.454;-2.058;2023-07-31T07:06:22;19.60;73.40
76613;DHT22;65507;48.454;-2.058;2023-07-31T07:08:48;19.60;73.30
76613;DHT22;65507;48.454;-2.058;2023-07-31T07:11:13;19.60;73.70
76613;DHT22;65507;48.454;-2.058;2023-07-31T07:13:39;19.60;73.30
76613;DHT22;65507;48.454;-2.058;2023-07-31T07:16:05;19.60;73.70
76613;DHT22;65507;48.454;-2.058;2023-07-31T07:18:30;19.60;73.50
76613;DHT22;65507;48.454;-2.058;2023-07-31T07:20:56;19.60;73.50
76613;DHT22;65507;48.454;-2.058;2023-07-31T07:23:23;19.60;73.40
76613;DHT22;65507;48.454;-2.058;2023-07-31T07:25:49;19.60;73.70
76613;DHT22;65507;48.454;-2.058;2023-07-31T07:28:15;19.60;73.70
76613;DHT22;65507;48.454;-2.058;2023-07-31T07:30:40;19.60;73.60
76613;DHT22;65507;48.454;-2.058;2023-07-31T07:33:06;19.60;73.60
76613;DHT22;65507;48.454;-2.058;2023-07-31T07:35:35;19.60;73.80
76613;DHT22;65507;48.454;-2.058;2023-07-31T07:38:04;19.60;73.40
76613;DHT22;65507;48.454;-2.058;2023-07-31T07:40:29;19.70;73.50
76613;DHT22;65507;48.454;-2.058;2023-07-31T07:42:55;19.70;73.80
76613;DHT22;65507;48.454;-2.058;2023-07-31T07:45:20;19.70;73.70
76613;DHT22;65507;48.454;-2.058;2023-07-31T07:47:46;19.70;73.80
76613;DHT22;65507;48.454;-2.058;2023-07-31T07:50:11;19.70;73.80
76613;DHT22;65507;48.454;-2.058;2023-07-31T07:52:37;19.70;74.00
76613;DHT22;65507;48.454;-2.058;2023-07-31T07:55:03;19.70;73.70
76613;DHT22;65507;48.454;-2.058;2023-07-31T07:57:29;19.70;73.70
76613;DHT22;65507;48.454;-2.058;2023-07-31T07:59:54;19.70;73.80
76613;DHT22;65507;48.454;-2.058;2023-07-31T08:02:20;19.70;73.80
76613;DHT22;65507;48.454;-2.058;2023-07-31T08:04:45;19.00;73.40
76613;DHT22;65507;48.454;-2.058;2023-07-31T08:07:11;19.70;73.70
76613;DHT22;65507;48.454;-2.058;2023-07-31T08:09:37;19.80;73.50
76613;DHT22;65507;48.454;-2.058;2023-07-31T08:12:03;19.90;73.40
76613;DHT22;65507;48.454;-2.058;2023-07-31T08:14:31;20.00;73.20
76613;DHT22;65507;48.454;-2.058;2023-07-31T08:16:57;20.00;73.40
76613;DHT22;65507;48.454;-2.058;2023-07-31T08:19:22;20.10;73.20
76613;DHT22;65507;48.454;-2.058;2023-07-31T08:21:48;20.10;73.10
76613;DHT22;65507;48.454;-2.058;2023-07-31T08:24:13;20.20;73.10
76613;DHT22;65507;48.454;-2.058;2023-07-31T08:26:39;20.30;73.80
76613;DHT22;65507;48.454;-2.058;2023-07-31T08:29:04;20.50;72.60
76613;DHT22;65507;48.454;-2.058;2023-07-31T08:31:30;20.60;72.50
76613;DHT22;65507;48.454;-2.058;2023-07-31T08:33:56;20.80;72.20
76613;DHT22;65507;48.454;-2.058;2023-07-31T08:36:21;20.90;71.90
76613;DHT22;65507;48.454;-2.058;2023-07-31T08:38:47;21.00;71.90
76613;DHT22;65507;48.454;-2.058;2023-07-31T08:41:16;21.20;71.70
76613;DHT22;65507;48.454;-2.058;2023-07-31T08:43:47;21.20;71.60
76613;DHT22;65507;48.454;-2.058;2023-07-31T08:46:14;21.30;71.50
76613;DHT22;65507;48.454;-2.058;2023-07-31T08:48:41;19.20;70.70
76613;DHT22;65507;48.454;-2.058;2023-07-31T08:51:07;21.30;71.70
76613;DHT22;65507;48.454;-2.058;2023-07-31T08:53:32;21.30;72.00
76613;DHT22;65507;48.454;-2.058;2023-07-31T08:55:58;21.30;72.20
76613;DHT22;65507;48.454;-2.058;2023-07-31T08:58:24;21.30;72.20
76613;DHT22;65507;48.454;-2.058;2023-07-31T09:00:50;21.20;72.30
76613;DHT22;65507;48.454;-2.058;2023-07-31T09:03:17;21.10;72.60
76613;DHT22;65507;48.454;-2.058;2023-07-31T09:05:46;21.10;72.90
76613;DHT22;65507;48.454;-2.058;2023-07-31T09:08:12;21.10;72.90
76613;DHT22;65507;48.454;-2.058;2023-07-31T09:10:42;21.20;72.70
76613;DHT22;65507;48.454;-2.058;2023-07-31T09:13:08;21.30;72.60
76613;DHT22;65507;48.454;-2.058;2023-07-31T09:15:34;21.50;72.00
76613;DHT22;65507;48.454;-2.058;2023-07-31T09:18:00;21.70;71.90
76613;DHT22;65507;48.454;-2.058;2023-07-31T09:20:26;21.80;71.50
76613;DHT22;65507;48.454;-2.058;2023-07-31T09:22:52;21.80;71.80
76613;DHT22;65507;48.454;-2.058;2023-07-31T09:25:25;21.90;71.90
76613;DHT22;65507;48.454;-2.058;2023-07-31T09:27:59;21.90;71.40
76613;DHT22;65507;48.454;-2.058;2023-07-31T09:30:24;21.90;71.40
76613;DHT22;65507;48.454;-2.058;2023-07-31T09:32:50;21.90;71.60
76613;DHT22;65507;48.454;-2.058;2023-07-31T09:37:42;21.90;71.80
76613;DHT22;65507;48.454;-2.058;2023-07-31T09:40:07;21.90;71.90
76613;DHT22;65507;48.454;-2.058;2023-07-31T09:42:33;21.80;72.00
76613;DHT22;65507;48.454;-2.058;2023-07-31T09:45:09;21.80;72.30
76613;DHT22;65507;48.454;-2.058;2023-07-31T09:47:35;21.70;72.20
76613;DHT22;65507;48.454;-2.058;2023-07-31T09:50:00;21.80;72.80
76613;DHT22;65507;48.454;-2.058;2023-07-31T09:52:26;21.80;72.40
76613;DHT22;65507;48.454;-2.058;2023-07-31T09:54:54;21.90;72.20
76613;DHT22;65507;48.454;-2.058;2023-07-31T09:57:21;22.00;72.00
76613;DHT22;65507;48.454;-2.058;2023-07-31T09:59:47;22.10;71.90
76613;DHT22;65507;48.454;-2.058;2023-07-31T10:02:14;22.20;72.40
76613;DHT22;65507;48.454;-2.058;2023-07-31T10:04:40;22.20;71.50
76613;DHT22;65507;48.454;-2.058;2023-07-31T10:07:08;22.30;71.50
76613;DHT22;65507;48.454;-2.058;2023-07-31T10:09:33;22.30;71.70
76613;DHT22;65507;48.454;-2.058;2023-07-31T10:12:00;22.20;71.70
76613;DHT22;65507;48.454;-2.058;2023-07-31T10:14:25;22.20;71.80
76613;DHT22;65507;48.454;-2.058;2023-07-31T10:16:51;22.30;71.80
76613;DHT22;65507;48.454;-2.058;2023-07-31T10:19:18;22.30;71.60
76613;DHT22;65507;48.454;-2.058;2023-07-31T10:21:44;22.40;71.90
76613;DHT22;65507;48.454;-2.058;2023-07-31T10:24:10;22.40;71.90
76613;DHT22;65507;48.454;-2.058;2023-07-31T10:26:37;22.40;71.50
76613;DHT22;65507;48.454;-2.058;2023-07-31T10:29:03;22.50;71.60
76613;DHT22;65507;48.454;-2.058;2023-07-31T10:31:29;22.50;71.60
76613;DHT22;65507;48.454;-2.058;2023-07-31T10:33:55;22.50;71.70
76613;DHT22;65507;48.454;-2.058;2023-07-31T10:36:21;22.50;71.50
76613;DHT22;65507;48.454;-2.058;2023-07-31T10:38:50;22.50;71.60
76613;DHT22;65507;48.454;-2.058;2023-07-31T10:41:18;22.60;71.50
76613;DHT22;65507;48.454;-2.058;2023-07-31T10:43:45;22.70;71.30
76613;DHT22;65507;48.454;-2.058;2023-07-31T10:46:12;22.90;71.20
76613;DHT22;65507;48.454;-2.058;2023-07-31T10:48:38;23.20;70.50
76613;DHT22;65507;48.454;-2.058;2023-07-31T10:51:08;23.30;70.30
76613;DHT22;65507;48.454;-2.058;2023-07-31T10:53:35;23.30;70.00
76613;DHT22;65507;48.454;-2.058;2023-07-31T10:56:02;23.30;70.30
76613;DHT22;65507;48.454;-2.058;2023-07-31T10:58:28;23.20;70.40
76613;DHT22;65507;48.454;-2.058;2023-07-31T11:01:12;23.10;70.80
76613;DHT22;65507;48.454;-2.058;2023-07-31T11:06:06;23.00;71.00
76613;DHT22;65507;48.454;-2.058;2023-07-31T11:08:32;23.00;71.40
76613;DHT22;65507;48.454;-2.058;2023-07-31T11:13:27;22.80;71.50
76613;DHT22;65507;48.454;-2.058;2023-07-31T11:15:53;22.80;71.70
76613;DHT22;65507;48.454;-2.058;2023-07-31T11:18:18;22.90;71.70
76613;DHT22;65507;48.454;-2.058;2023-07-31T11:20:44;22.90;71.40
76613;DHT22;65507;48.454;-2.058;2023-07-31T11:23:11;23.00;71.40
76613;DHT22;65507;48.454;-2.058;2023-07-31T11:25:37;23.00;71.30
76613;DHT22;65507;48.454;-2.058;2023-07-31T11:28:04;23.00;71.30
76613;DHT22;65507;48.454;-2.058;2023-07-31T11:30:30;23.00;71.30
76613;DHT22;65507;48.454;-2.058;2023-07-31T11:32:55;23.00;71.50
76613;DHT22;65507;48.454;-2.058;2023-07-31T11:35:21;23.00;71.50
76613;DHT22;65507;48.454;-2.058;2023-07-31T11:37:47;23.00;71.40
76613;DHT22;65507;48.454;-2.058;2023-07-31T11:40:14;23.00;71.40
76613;DHT22;65507;48.454;-2.058;2023-07-31T11:42:40;23.10;71.70
76613;DHT22;65507;48.454;-2.058;2023-07-31T11:45:05;23.10;71.20
76613;DHT22;65507;48.454;-2.058;2023-07-31T11:47:32;23.10;71.00
76613;DHT22;65507;48.454;-2.058;2023-07-31T11:49:59;23.20;71.00
76613;DHT22;65507;48.454;-2.058;2023-07-31T11:52:25;23.20;71.00
76613;DHT22;65507;48.454;-2.058;2023-07-31T11:54:51;23.30;70.90
76613;DHT22;65507;48.454;-2.058;2023-07-31T11:57:17;23.40;70.80
76613;DHT22;65507;48.454;-2.058;2023-07-31T11:59:43;23.50;70.60
76613;DHT22;65507;48.454;-2.058;2023-07-31T12:02:09;23.50;70.40
76613;DHT22;65507;48.454;-2.058;2023-07-31T12:04:35;23.60;70.30
76613;DHT22;65507;48.454;-2.058;2023-07-31T12:07:01;23.70;70.30
76613;DHT22;65507;48.454;-2.058;2023-07-31T12:09:26;23.70;70.40
76613;DHT22;65507;48.454;-2.058;2023-07-31T12:11:52;23.70;70.40
76613;DHT22;65507;48.454;-2.058;2023-07-31T12:14:24;23.80;70.30
76613;DHT22;65507;48.454;-2.058;2023-07-31T12:16:56;23.90;70.00
76613;DHT22;65507;48.454;-2.058;2023-07-31T12:19:22;23.90;70.00
76613;DHT22;65507;48.454;-2.058;2023-07-31T12:21:48;23.90;70.10
76613;DHT22;65507;48.454;-2.058;2023-07-31T12:24:14;23.90;70.30
76613;DHT22;65507;48.454;-2.058;2023-07-31T12:26:39;23.80;70.50
76613;DHT22;65507;48.454;-2.058;2023-07-31T12:29:06;24.70;71.30
76613;DHT22;65507;48.454;-2.058;2023-07-31T12:31:33;23.70;70.80
76613;DHT22;65507;48.454;-2.058;2023-07-31T12:33:58;23.70;70.90
76613;DHT22;65507;48.454;-2.058;2023-07-31T12:36:24;23.70;71.00
76613;DHT22;65507;48.454;-2.058;2023-07-31T12:38:50;23.70;71.10
76613;DHT22;65507;48.454;-2.058;2023-07-31T12:41:16;23.70;71.20
76613;DHT22;65507;48.454;-2.058;2023-07-31T12:43:42;23.70;71.20
76613;DHT22;65507;48.454;-2.058;2023-07-31T12:46:11;23.60;71.10
76613;DHT22;65507;48.454;-2.058;2023-07-31T12:48:39;23.60;71.50
76613;DHT22;65507;48.454;-2.058;2023-07-31T12:51:05;23.50;71.60
76613;DHT22;65507;48.454;-2.058;2023-07-31T12:53:32;23.50;71.80
76613;DHT22;65507;48.454;-2.058;2023-07-31T12:55:58;23.40;71.70
76613;DHT22;65507;48.454;-2.058;2023-07-31T12:58:23;23.30;72.00
76613;DHT22;65507;48.454;-2.058;2023-07-31T13:00:49;23.20;72.30
76613;DHT22;65507;48.454;-2.058;2023-07-31T13:03:14;23.10;72.30
76613;DHT22;65507;48.454;-2.058;2023-07-31T13:05:40;23.00;72.40
76613;DHT22;65507;48.454;-2.058;2023-07-31T13:08:06;22.90;72.70
76613;DHT22;65507;48.454;-2.058;2023-07-31T13:10:32;22.80;73.10
76613;DHT22;65507;48.454;-2.058;2023-07-31T13:12:57;22.70;73.20
76613;DHT22;65507;48.454;-2.058;2023-07-31T13:15:23;22.50;73.50
76613;DHT22;65507;48.454;-2.058;2023-07-31T13:17:48;22.40;73.70
76613;DHT22;65507;48.454;-2.058;2023-07-31T13:20:14;22.30;74.10
76613;DHT22;65507;48.454;-2.058;2023-07-31T13:22:40;22.10;74.10
76613;DHT22;65507;48.454;-2.058;2023-07-31T13:25:05;22.00;74.20
76613;DHT22;65507;48.454;-2.058;2023-07-31T13:27:31;21.90;74.30
76613;DHT22;65507;48.454;-2.058;2023-07-31T13:29:59;21.80;74.50
76613;DHT22;65507;48.454;-2.058;2023-07-31T13:32:25;21.70;74.70
76613;DHT22;65507;48.454;-2.058;2023-07-31T13:34:51;21.60;74.80
76613;DHT22;65507;48.454;-2.058;2023-07-31T13:37:16;21.50;74.80
76613;DHT22;65507;48.454;-2.058;2023-07-31T13:39:44;21.50;74.90
76613;DHT22;65507;48.454;-2.058;2023-07-31T13:42:09;21.40;74.90
76613;DHT22;65507;48.454;-2.058;2023-07-31T13:44:37;21.40;74.90
76613;DHT22;65507;48.454;-2.058;2023-07-31T13:47:03;21.30;74.80
76613;DHT22;65507;48.454;-2.058;2023-07-31T13:49:29;21.30;74.90
76613;DHT22;65507;48.454;-2.058;2023-07-31T13:51:55;21.30;74.80
76613;DHT22;65507;48.454;-2.058;2023-07-31T13:54:20;21.30;74.70
76613;DHT22;65507;48.454;-2.058;2023-07-31T13:56:46;21.30;74.70
76613;DHT22;65507;48.454;-2.058;2023-07-31T13:59:11;21.20;74.90
76613;DHT22;65507;48.454;-2.058;2023-07-31T14:01:37;21.20;75.30
76613;DHT22;65507;48.454;-2.058;2023-07-31T14:04:03;21.20;74.90
76613;DHT22;65507;48.454;-2.058;2023-07-31T14:06:28;21.30;74.70
76613;DHT22;65507;48.454;-2.058;2023-07-31T14:08:54;21.40;74.60
76613;DHT22;65507;48.454;-2.058;2023-07-31T14:11:21;21.40;74.50
76613;DHT22;65507;48.454;-2.058;2023-07-31T14:13:47;21.50;75.30
76613;DHT22;65507;48.454;-2.058;2023-07-31T14:16:12;21.50;74.50
76613;DHT22;65507;48.454;-2.058;2023-07-31T14:18:38;21.50;74.20
76613;DHT22;65507;48.454;-2.058;2023-07-31T14:21:03;21.50;74.80
76613;DHT22;65507;48.454;-2.058;2023-07-31T14:23:29;21.50;74.30
76613;DHT22;65507;48.454;-2.058;2023-07-31T14:25:54;21.50;74.40
76613;DHT22;65507;48.454;-2.058;2023-07-31T14:28:22;21.50;74.40
76613;DHT22;65507;48.454;-2.058;2023-07-31T14:30:48;21.40;74.30
76613;DHT22;65507;48.454;-2.058;2023-07-31T14:33:13;21.50;74.60
76613;DHT22;65507;48.454;-2.058;2023-07-31T14:35:39;21.50;75.30
76613;DHT22;65507;48.454;-2.058;2023-07-31T14:38:04;21.60;74.30
76613;DHT22;65507;48.454;-2.058;2023-07-31T14:40:30;21.60;74.10
76613;DHT22;65507;48.454;-2.058;2023-07-31T14:42:56;21.60;74.10
76613;DHT22;65507;48.454;-2.058;2023-07-31T14:45:21;21.70;74.00
76613;DHT22;65507;48.454;-2.058;2023-07-31T14:47:47;21.70;74.00
76613;DHT22;65507;48.454;-2.058;2023-07-31T14:50:12;21.70;74.00
76613;DHT22;65507;48.454;-2.058;2023-07-31T14:52:38;21.70;74.10
76613;DHT22;65507;48.454;-2.058;2023-07-31T14:55:03;21.70;74.20
76613;DHT22;65507;48.454;-2.058;2023-07-31T14:57:29;21.70;74.20
76613;DHT22;65507;48.454;-2.058;2023-07-31T14:59:54;21.70;74.20
76613;DHT22;65507;48.454;-2.058;2023-07-31T15:02:22;21.70;74.10
76613;DHT22;65507;48.454;-2.058;2023-07-31T15:04:48;21.70;74.00
76613;DHT22;65507;48.454;-2.058;2023-07-31T15:07:13;21.70;74.20
76613;DHT22;65507;48.454;-2.058;2023-07-31T15:09:39;21.70;74.20
76613;DHT22;65507;48.454;-2.058;2023-07-31T15:12:05;21.70;74.30
76613;DHT22;65507;48.454;-2.058;2023-07-31T15:14:30;21.60;74.40
76613;DHT22;65507;48.454;-2.058;2023-07-31T15:16:56;21.60;74.40
76613;DHT22;65507;48.454;-2.058;2023-07-31T15:19:22;21.60;74.60
76613;DHT22;65507;48.454;-2.058;2023-07-31T15:21:48;21.60;74.60
76613;DHT22;65507;48.454;-2.058;2023-07-31T15:24:14;21.60;74.50
76613;DHT22;65507;48.454;-2.058;2023-07-31T15:26:40;21.60;74.60